Tiempo atmosférico en la estación meteorológica de Soba, Alto Miera, Cantabria (695 m.)



Fecha
DESCASC
Temp. máxima en grados centígrados (hora)
DESCASC
Temp. mínima en grados centígrados (hora)
DESCASC
Temp. media en grados centígrados
DESCASC
Racha de viento máxima en m/sg (hora)
DESCASC
Velocidad máxima media en intervalos de 10 minutos(hora)
DESCASC
Precipitaciones diarias en mm
DESCASC
Precipitaciones de 00:00 a 06:00 en mm
DESCASC
Precipitaciones de 06:00 a 12:00 en mm
DESCASC
Precipitaciones de 12:00 a 18:00 en mm
DESCASC
Precipitaciones de 18:00 a 24:00 en mm
DESCASC
13-01-2021 6.8 (15:20) 0.7 (23:30) 3.8 4.17 (18:10) 2.78 (18:10) -- -- 0 0 0
12-01-2021 5.4 (15:30) 0.8 (00:10) 3.1 4.17 (17:40) 2.78 (16:30) 0 0 0 0 0
11-01-2021 2.6 (15:30) 0.2 (18:10) 1.4 10.83 (10:50) 5 (11:20) 0 0 0 0 0
10-01-2021 1.1 (23:30) -0.1 (08:00) 0.5 9.17 (05:00) 5 (05:10) 0.4 0.4 0 0 0
09-01-2021 0.2 (12:30) -1.5 (-00:0) -0.6 16.11 (20:20) 6.11 (19:50) 2 0 0 1.6 0.4
08-01-2021 2.3 (13:40) -2 (-00:0) 0.1 12.5 (10:00) 5.56 (09:30) 0 0 0 0 0
07-01-2021 3.3 (14:40) -3.7 (-00:0) -0.2 4.44 (16:10) 3.61 (16:10) 0 0 0 0 0
06-01-2021 3.5 (13:30) -2 (-00:0) 0.8 4.17 (08:20) 2.78 (16:40) 0.2 0.2 0 0 0
05-01-2021 1.7 (14:50) -0.7 (-00:0) 0.5 -- (--) -- (--) 22.6 1.8 5.2 11.6 4
04-01-2021 0.4 (13:00) -0.8 (-00:0) -0.2 -- (--) -- (--) 28.2 10.2 10.8 5.4 1.8
03-01-2021 1.5 (12:30) -0.3 (00:00) 0.6 8.33 (19:30) 4.17 (16:00) 39.2 14.8 10.8 8.4 5.2
02-01-2021 -- (--) -- (--) -- -- (--) -- (--) -- 9.6 -- -- 4.6
01-01-2021 1.8 (10:30) -0.4 (00:00) 0.7 11.39 (14:20) 5 (14:20) 39.2 15.6 1.8 15 6.8
31-12-2020 6.4 (11:40) 0.2 (00:00) 3.3 11.67 (12:50) 4.44 (11:00) 26 0 0.2 16 9.8
30-12-2020 4.7 (22:20) 0.2 (00:00) 2.4 10.28 (08:00) 5.28 (06:00) 37.7 18 10.3 9.4 0
29-12-2020 3 (05:20) 0.2 (00:00) 1.6 17.78 (03:20) 6.94 (15:30) 34.4 4.8 6.4 5.4 17.8
28-12-2020 5.2 (18:20) 0.3 (00:00) 2.7 24.72 (12:00) 10 (00:50) 27.8 12.4 3.2 1.6 10.6
27-12-2020 9.9 (11:10) 1.1 (00:00) 5.5 26.39 (19:50) 9.72 (18:50) 23.4 0 0 0 23.4
26-12-2020 3.2 (12:30) 0.7 (00:00) 2 5 (15:20) 3.06 (15:30) 5.2 2.2 1 1.8 0.2
25-12-2020 4.5 (15:00) 0.4 (00:00) 2.5 8.33 (00:40) 4.72 (16:30) 8 3.4 2.8 0.4 1.4
24-12-2020 5.4 (14:00) 2.7 (00:00) 4.1 10.56 (18:50) 5 (18:50) 21.2 0 0 2.6 18.6
23-12-2020 15.3 (01:00) 5 (00:00) 10.2 15.56 (04:30) 7.5 (01:30) 13.8 0 0 4.8 9
22-12-2020 16.5 (12:30) 12 (00:00) 14.3 13.61 (23:00) 6.11 (17:40) 0 0 0 0 0
21-12-2020 17.1 (15:00) 10.3 (00:00) 13.7 8.89 (00:20) 5 (02:30) -- 1.4 -- -- 0
20-12-2020 11.6 (12:40) 4.8 (00:00) 8.2 8.89 (18:50) 4.72 (23:59) 0 0 0 0 0
19-12-2020 10.9 (15:30) 5.1 (00:00) 8 18.61 (01:50) 8.33 (06:40) 5.6 4.8 0 0 0.8
18-12-2020 13.2 (12:30) 7.6 (00:00) 10.4 17.22 (13:50) 7.78 (22:00) 0 0 0 0 0
17-12-2020 11.8 (15:00) 4 (00:00) 7.9 5.83 (14:00) 3.61 (14:00) 0 0 0 0 0

Gráficas

Temp. máximas Temp. mínimas Temp. medias Precipitaciones Rachas de viento máximas Velocidades máximas media en intervalos de 10 minutos

Datos horarios

Fecha y hora oficial Temperatura (ºC) Velocidad del viento (km/h) Dirección del viento Racha (km/h) Dirección de racha Precipitación (mm) Presión (hPa) Tendencia (hPa) Humedad (%)
2021-01-15 23:00:00 2.6 5 Sudeste 11 Este 0 -- -- 83
2021-01-15 22:00:00 2.9 4 Sudeste 9 Sudeste 0 -- -- 86
2021-01-15 21:00:00 2.9 4 Sur 8 Sudeste 0 -- -- 87
2021-01-15 20:00:00 3.3 5 Sudeste 9 Este 0 -- -- 88
2021-01-15 19:00:00 3 2 Sudeste 5 Este 0 -- -- 91
2021-01-15 18:00:00 3.4 2 Sudeste 7 Sudeste 0 -- -- 90
2021-01-15 17:00:00 4.1 -- -- -- -- -- -- -- --
2021-01-15 16:00:00 4.5 2 Sudeste 6 Este 0 -- -- 87
2021-01-15 15:00:00 4.1 4 Este 7 Norte 0 -- -- 90
2021-01-15 14:00:00 4.9 0 Calma 4 Sur 0 -- -- 88
2021-01-15 13:00:00 4.7 2 Sur 9 Norte 0 -- -- 94
2021-01-15 12:00:00 5.1 0 Calma 10 Norte 0 -- -- 93
2021-01-15 11:00:00 3.8 0 Calma 5 Sur 0.2 -- -- 99
2021-01-15 10:00:00 -- -- -- -- -- -- -- -- --
2021-01-15 09:00:00 -- -- -- -- -- -- -- -- --
2021-01-15 08:00:00 -- -- -- -- -- -- -- -- --
2021-01-15 07:00:00 -- -- -- -- -- -- -- -- --
2021-01-15 06:00:00 -- -- -- -- -- -- -- -- --
2021-01-15 05:00:00 -- -- -- -- -- -- -- -- --
2021-01-15 04:00:00 -- -- -- -- -- -- -- -- --
2021-01-15 03:00:00 -- -- -- -- -- -- -- -- --
2021-01-15 02:00:00 3.9 3 Este 14 Norte 0 -- -- 99
2021-01-15 01:00:00 -- -- -- -- -- -- -- -- --
2021-01-15 00:00:00 -- -- -- -- -- -- -- -- --
2021-01-14 23:00:00 -- -- -- -- -- -- -- -- --
2021-01-14 22:00:00 -- -- -- -- -- -- -- -- --
2021-01-14 21:00:00 -- -- -- -- -- -- -- -- --
2021-01-14 20:00:00 -- -- -- -- -- -- -- -- --
2021-01-14 19:00:00 -- -- -- -- -- -- -- -- --
2021-01-14 18:00:00 -- -- -- -- -- -- -- -- --
2021-01-14 17:00:00 -- -- -- -- -- -- -- -- --
2021-01-14 16:00:00 -- -- -- -- -- -- -- -- --
2021-01-14 15:00:00 -- -- -- -- -- -- -- -- --
2021-01-14 14:00:00 4.3 4 Sudeste 10 Nordeste 0.2 -- -- 88
2021-01-14 13:00:00 5.7 2 Norte 6 Nordeste 0 -- -- 67
2021-01-14 12:00:00 5.7 3 Norte 17 Sudeste 0 -- -- 63
2021-01-14 11:00:00 1.1 9 Sudeste 17 Sudeste 0 -- -- 86
2021-01-14 10:00:00 0.4 5 Sudeste 17 Sudeste 0 -- -- 87
2021-01-14 09:00:00 0.1 3 Sudeste 15 Sudeste 0 -- -- 85
2021-01-14 08:00:00 0.1 8 Sudeste 14 Sur 0 -- -- 82
2021-01-14 07:00:00 0.2 4 Este 11 Sudeste 0 -- -- 83
2021-01-14 06:00:00 0.4 3 Sudeste 14 Sudeste 0 -- -- 84
2021-01-14 05:00:00 0.4 5 Sudeste 11 Sudeste 0 -- -- 86
2021-01-14 04:00:00 0.4 4 Sudeste 10 Sudeste 0 -- -- 83
2021-01-14 03:00:00 0.4 4 Sur 14 Sudeste 0 -- -- 81
2021-01-14 02:00:00 0.4 3 Sudeste 10 Sudeste 0 -- -- 83
2021-01-14 01:00:00 0.4 5 Sudeste 9 Sudeste -- -- -- 84
2021-01-14 00:00:00 0.7 3 Sudeste 10 Sudeste 0 -- -- 83
2021-01-13 23:00:00 0.9 4 Sudeste 13 Sudeste 0 -- -- 86
2021-01-13 22:00:00 1 3 Sudeste 13 Sudeste 0 -- -- 85
2021-01-13 21:00:00 1.5 6 Sur 13 Sudeste 0 -- -- 84
2021-01-13 20:00:00 1.9 10 Sudeste 14 Sudeste 0 -- -- 81
2021-01-13 19:00:00 1.9 5 Sudeste 15 Sudeste 0 -- -- 81
2021-01-13 18:00:00 2.6 9 Sudeste 15 Sudeste 0 -- -- 76
2021-01-13 17:00:00 2.9 4 Sur 14 Sudeste 0 -- -- 78
2021-01-13 16:00:00 5.8 7 Sudeste 11 Sur 0 -- -- 63
2021-01-13 15:00:00 6.2 2 Este 9 Sudeste 0 -- -- 70
2021-01-13 14:00:00 5.4 5 Sudeste 12 Sudeste 0 -- -- 73
2021-01-13 13:00:00 5.3 4 Este 11 Sudeste 0 -- -- 73
2021-01-13 12:00:00 5.7 2 Sudeste 12 Sudeste 0 -- -- 73
2021-01-13 11:00:00 3.7 5 Sudeste 10 Este 0 -- -- 84
2021-01-13 10:00:00 3.3 6 Sudeste 10 Este 0 -- -- 86
2021-01-13 09:00:00 2.7 2 Sur 5 Sur 0 -- -- 87
2021-01-13 08:00:00 3 2 Sudeste 7 Sudeste 0 -- -- 86
2021-01-13 07:00:00 3 5 Sudeste 9 Sudeste 0 -- -- 86
2021-01-13 06:00:00 2.9 4 Este 9 Este 0 -- -- 86
2021-01-13 05:00:00 2.9 4 Sudeste 9 Sudeste -- -- -- 86
2021-01-13 04:00:00 3 5 Sur 9 Sur -- -- -- 85
2021-01-13 03:00:00 3.2 3 Sudeste 9 Sudeste 0 -- -- 84
2021-01-13 02:00:00 2.9 3 Sudeste 8 Este 0 -- -- 86
2021-01-13 01:00:00 3.1 3 Sudeste 8 Este 0 -- -- 85
2021-01-13 00:00:00 3 4 Sudeste 8 Sudeste 0 -- -- 84
2021-01-12 23:00:00 2.5 2 Sudeste 8 Este 0 -- -- 87
2021-01-12 22:00:00 2.6 4 Sudeste 9 Sudeste 0 -- -- 85
2021-01-12 21:00:00 2.5 4 Sur 9 Sudeste 0 -- -- 85
2021-01-12 20:00:00 2.4 5 Sudeste 11 Sudeste 0 -- -- 85
2021-01-12 19:00:00 2 4 Sur 13 Sudeste 0 -- -- 84
2021-01-12 18:00:00 1.8 6 Sudeste 15 Sur 0 -- -- 83
2021-01-12 17:00:00 2.6 6 Sur 13 Sudeste 0 -- -- 79
2021-01-12 16:00:00 5 5 Sudeste 10 Sur 0 -- -- 68
2021-01-12 15:00:00 4.8 3 Este 9 Sudeste 0 -- -- 73
2021-01-12 14:00:00 4.5 5 Sudeste 11 Sudeste 0 -- -- 72
2021-01-12 13:00:00 4.4 7 Sudeste 11 Sudeste 0 -- -- 71
2021-01-12 12:00:00 4.6 3 Nordeste 12 Sudeste 0 -- -- 73
2021-01-12 11:00:00 3.5 3 Este 6 Sudeste 0 -- -- 80
2021-01-12 10:00:00 2.7 3 Sudeste 8 Sudeste 0 -- -- 86
2021-01-12 09:00:00 2.2 3 Sudeste 8 Este 0 -- -- 87
2021-01-12 08:00:00 2 7 Sudeste 10 Sudeste 0 -- -- 86
2021-01-12 07:00:00 1.8 5 Sudeste 6 Sudeste 0 -- -- 87
2021-01-12 06:00:00 1.9 4 Este 8 Norte 0 -- -- 86
2021-01-12 05:00:00 1.8 2 Sudeste 9 Sudeste 0 -- -- 85
2021-01-12 04:00:00 1.8 7 Sudeste 10 Sudeste 0 -- -- 82
2021-01-12 03:00:00 1.7 7 Sudeste 11 Sudeste 0 -- -- 81
2021-01-12 02:00:00 1.5 6 Sudeste 11 Sudeste 0 -- -- 81
2021-01-12 01:00:00 1.2 5 Sudeste 9 Sur 0 -- -- 80
2021-01-12 00:00:00 0.9 4 Sur 10 Sudeste 0 -- -- 84
2021-01-11 23:00:00 1 5 Sudeste 9 Sur 0 -- -- 85
2021-01-11 22:00:00 0.8 4 Sudeste 6 Sudeste 0 -- -- 85
2021-01-11 21:00:00 0.7 3 Este 5 Sudeste 0 -- -- 87
2021-01-11 20:00:00 0.5 0 Calma 4 Sudeste 0 -- -- 87
2021-01-11 19:00:00 0.4 3 Sudeste 5 Sudeste 0 -- -- 86
2021-01-11 18:00:00 0.3 3 Sur 5 Sudeste 0 -- -- 81
2021-01-11 17:00:00 1.4 4 Norte 13 Noroeste 0 -- -- 77
2021-01-11 16:00:00 2.1 8 Noroeste 14 Noroeste 0 -- -- 82
2021-01-11 15:00:00 2.4 9 Noroeste 20 Noroeste 0 -- -- 81
2021-01-11 14:00:00 2.2 12 Noroeste 22 Noroeste 0 -- -- 80
2021-01-11 13:00:00 2 14 Noroeste 27 Noroeste 0 -- -- 80
2021-01-11 12:00:00 1.8 15 Noroeste 32 Noroeste 0 -- -- 78
2021-01-11 11:00:00 1.3 17 Noroeste 39 Noroeste 0 -- -- 85
2021-01-11 10:00:00 1 14 Noroeste 26 Noroeste 0 -- -- 84
2021-01-11 09:00:00 0.8 14 Noroeste 28 Noroeste 0 -- -- 86
2021-01-11 08:00:00 0.7 15 Noroeste 31 Noroeste 0 -- -- 83
2021-01-11 07:00:00 0.6 12 Noroeste 29 Noroeste 0 -- -- 88
2021-01-11 06:00:00 0.7 14 Noroeste 29 Noroeste 0 -- -- 86
2021-01-11 05:00:00 0.6 14 Noroeste 27 Noroeste 0 -- -- 87
2021-01-11 04:00:00 0.8 16 Noroeste 33 Oeste 0 -- -- 86
2021-01-11 03:00:00 0.8 13 Noroeste 32 Noroeste 0 -- -- 85
2021-01-11 02:00:00 0.9 15 Noroeste 35 Noroeste 0 -- -- 87
2021-01-11 01:00:00 1.1 11 Noroeste 33 Noroeste 0 -- -- 83
2021-01-11 00:00:00 1.1 15 Noroeste 30 Noroeste 0 -- -- 85
2021-01-10 23:00:00 0.9 13 Noroeste 25 Noroeste 0 -- -- 88
2021-01-10 22:00:00 0.7 12 Noroeste 31 Noroeste 0 -- -- 92
2021-01-10 21:00:00 0.8 13 Noroeste 31 Oeste 0 -- -- 88
2021-01-10 20:00:00 0.7 14 Noroeste 31 Noroeste 0 -- -- 89
2021-01-10 19:00:00 0.5 13 Noroeste 31 Noroeste -- -- -- 90
2021-01-10 18:00:00 0.3 14 Noroeste 26 Noroeste 0 -- -- 93
2021-01-10 17:00:00 0.3 13 Noroeste 28 Noroeste 0 -- -- 91
2021-01-10 16:00:00 0.4 15 Noroeste 27 Noroeste 0 -- -- 87
2021-01-10 15:00:00 0.5 13 Noroeste 25 Noroeste 0 -- -- 89
2021-01-10 14:00:00 0.6 12 Noroeste 26 Noroeste 0 -- -- 89
2021-01-10 13:00:00 0.7 13 Noroeste 24 Noroeste 0 -- -- 91
2021-01-10 12:00:00 0.5 13 Noroeste 26 Noroeste 0 -- -- 94
2021-01-10 11:00:00 0.3 13 Noroeste 26 Noroeste 0 -- -- 97
2021-01-10 10:00:00 0.1 12 Noroeste 21 Noroeste 0 -- -- 97
2021-01-10 09:00:00 -0.1 13 Noroeste 25 Noroeste 0 -- -- 98
2021-01-10 08:00:00 -0.1 13 Noroeste 30 Noroeste 0 -- -- 97
2021-01-10 07:00:00 0 11 Noroeste 28 Noroeste 0 -- -- 97
2021-01-10 06:00:00 0.2 15 Noroeste 33 Noroeste 0 -- -- 96
2021-01-10 05:00:00 0.2 18 Noroeste 33 Noroeste 0.4 -- -- 97
2021-01-10 04:00:00 0.8 8 Noroeste 25 Norte 0 -- -- 89
2021-01-10 03:00:00 0.5 10 Noroeste 26 Norte 0 -- -- 91
2021-01-10 02:00:00 0.3 9 Noroeste 27 Norte 0 -- -- 93
2021-01-10 01:00:00 0.1 12 Noroeste 28 Noroeste 0 -- -- 91
2021-01-10 00:00:00 0.2 13 Noroeste 30 Norte 0 -- -- 91
2021-01-09 23:00:00 -0.1 8 Nordeste 24 Noroeste 0.2 -- -- 92
2021-01-09 22:00:00 0.2 11 Noroeste 36 Noroeste 0 -- -- 86
2021-01-09 21:00:00 -0.1 14 Noroeste 58 Nordeste 0 -- -- 84
2021-01-09 20:00:00 -0.4 15 Noroeste 39 Norte 0.2 -- -- 84
2021-01-09 19:00:00 -0.9 15 Noroeste 38 Norte 0 -- -- 88
2021-01-09 18:00:00 -1.5 12 Noroeste 23 Norte 0.2 -- -- 97
2021-01-09 17:00:00 -1 13 Noroeste 26 Noroeste 0.4 -- -- 94
2021-01-09 16:00:00 -0.8 14 Noroeste 22 Noroeste 0.4 -- -- 98
2021-01-09 15:00:00 -0.5 12 Noroeste 19 Noroeste 0.4 -- -- 96
2021-01-09 14:00:00 -0.4 11 Noroeste 21 Norte 0.2 -- -- 96
2021-01-09 13:00:00 0.2 10 Noroeste 24 Noroeste 0 -- -- 86
2021-01-09 12:00:00 -0.2 13 Noroeste 27 Oeste 0 -- -- 86
2021-01-09 11:00:00 0 9 Noroeste 32 Noroeste 0 -- -- 82
2021-01-09 10:00:00 -0.1 12 Noroeste 25 Noroeste 0 -- -- 84
2021-01-09 09:00:00 -0.4 10 Noroeste 28 Noroeste 0 -- -- 79
2021-01-09 08:00:00 -0.5 9 Noroeste 24 Noroeste 0 -- -- 79
2021-01-09 07:00:00 -0.6 12 Noroeste 26 Noroeste 0 -- -- 81
2021-01-09 06:00:00 -0.7 12 Noroeste 27 Noroeste 0 -- -- 83
2021-01-09 05:00:00 -0.5 12 Noroeste 24 Noroeste 0 -- -- 76
2021-01-09 04:00:00 -0.6 10 Norte 35 Norte 0 -- -- 74
2021-01-09 03:00:00 -0.5 14 Noroeste 37 Norte 0 -- -- 77
2021-01-09 02:00:00 -0.3 21 Noroeste 39 Norte 0 -- -- 78
2021-01-09 01:00:00 -0.4 13 Noroeste 36 Noroeste 0 -- -- 77
2021-01-09 00:00:00 -0.5 17 Noroeste 36 Norte 0 -- -- 76
2021-01-08 23:00:00 -0.7 19 Noroeste 31 Noroeste 0 -- -- 77
2021-01-08 22:00:00 -0.7 17 Noroeste 35 Noroeste -- -- -- 76
2021-01-08 21:00:00 -0.5 13 Noroeste 31 Noroeste 0 -- -- 74
2021-01-08 20:00:00 -0.9 17 Noroeste 33 Noroeste 0 -- -- 76
2021-01-08 19:00:00 -1.2 11 Noroeste 18 Oeste 0 -- -- 79
2021-01-08 18:00:00 -0.9 8 Noroeste 19 Nordeste 0 -- -- 76
2021-01-08 17:00:00 0.1 12 Sudeste 29 Noroeste 0 -- -- 72
2021-01-08 16:00:00 1.9 8 Sudeste 34 Este 0 -- -- 63
2021-01-08 15:00:00 2.1 8 Noroeste 35 Noroeste 0 -- -- 62
2021-01-08 14:00:00 1.5 8 Sudeste 22 Noroeste 0 -- -- 62
2021-01-08 13:00:00 1.4 7 Oeste 30 Norte 0 -- -- 66
2021-01-08 12:00:00 0.4 12 Noroeste 28 Noroeste 0 -- -- 72
2021-01-08 11:00:00 0 16 Noroeste 29 Norte 0 -- -- 74
2021-01-08 10:00:00 -0.5 17 Noroeste 45 Noroeste 0 -- -- 74
2021-01-08 09:00:00 -1.3 12 Noroeste 27 Norte 0 -- -- 76
2021-01-08 08:00:00 -1.3 12 Noroeste 22 Oeste 0 -- -- 76
2021-01-08 07:00:00 -1.1 10 Oeste 27 Norte 0 -- -- 76
2021-01-08 06:00:00 -1.5 10 Noroeste 30 Noroeste 0 -- -- 77
2021-01-08 05:00:00 -2 4 Norte 17 Oeste 0 -- -- 76
2021-01-08 04:00:00 -1.1 8 Oeste 15 Oeste 0 -- -- 72
2021-01-08 03:00:00 -1.1 7 Oeste 13 Sudoeste 0 -- -- 80
2021-01-08 02:00:00 -1 6 Oeste 17 Sudoeste 0 -- -- 77
2021-01-08 01:00:00 -1 8 Noroeste 19 Norte 0 -- -- 79
2021-01-08 00:00:00 -1 5 Norte 12 Noroeste 0 -- -- 81
2021-01-07 23:00:00 -1.5 4 Norte 10 Norte 0 -- -- 83
2021-01-07 22:00:00 -2.6 0 Calma 9 Sudeste 0 -- -- 82
2021-01-07 21:00:00 -3.6 3 Sudoeste 12 Sur 0 -- -- 82
2021-01-07 20:00:00 -3.1 6 Sudeste 15 Sudeste 0 -- -- 82
2021-01-07 19:00:00 -2.5 7 Sudeste 14 Sudeste 0 -- -- 80
2021-01-07 18:00:00 -2.1 6 Sudeste 11 Sudeste -- -- -- 75
2021-01-07 17:00:00 -1.1 7 Sur 16 Sudeste 0 -- -- 73
2021-01-07 16:00:00 1.3 9 Sur 14 Sur 0 -- -- 64
2021-01-07 15:00:00 3.1 5 Sur 9 Sur 0 -- -- 59
2021-01-07 14:00:00 2.2 4 Este 10 Noroeste 0 -- -- 68
2021-01-07 13:00:00 2.5 2 Sudeste 14 Sudeste 0 -- -- 65
2021-01-07 12:00:00 2.2 0 Calma 9 Sudeste 0 -- -- 66
2021-01-07 11:00:00 -1.8 4 Sudeste 9 Sudeste 0 -- -- 77
2021-01-07 10:00:00 -2.5 4 Sudeste 11 Sudeste 0 -- -- 76
2021-01-07 09:00:00 -2.5 3 Sur 12 Sudeste 0 -- -- 76
2021-01-07 08:00:00 -2.7 6 Sudeste 14 Sudeste 0 -- -- 77
2021-01-07 07:00:00 -2.8 7 Sudeste 15 Sudeste 0 -- -- 77
2021-01-07 06:00:00 -3 4 Sudeste 9 Sur 0 -- -- 77
2021-01-07 05:00:00 -2.4 0 Calma 15 Sur 0 -- -- 76
2021-01-07 04:00:00 -2.5 4 Sudeste 10 Sudeste 0 -- -- 77
2021-01-07 03:00:00 -2.4 2 Este 11 Sur 0 -- -- 77
2021-01-07 02:00:00 -1.8 6 Sudeste 14 Sudeste 0 -- -- 76
2021-01-07 01:00:00 -1.4 6 Sudeste 13 Sudeste 0 -- -- 77
2021-01-07 00:00:00 -2 3 Sudeste 10 Sur 0 -- -- 80
2021-01-06 23:00:00 -1.1 6 Sudeste 12 Sudeste 0 -- -- 77
2021-01-06 22:00:00 -0.9 9 Sudeste 14 Sudeste 0 -- -- 80
2021-01-06 21:00:00 -0.6 5 Sudeste 13 Sudeste 0 -- -- 82
2021-01-06 20:00:00 0 8 Sudeste 13 Sudeste 0 -- -- 86
2021-01-06 19:00:00 0.4 4 Sur 9 Este 0 -- -- 89
2021-01-06 18:00:00 0.9 3 Sudeste 11 Sur 0 -- -- 84
2021-01-06 17:00:00 1 6 Sudeste 13 Sudeste 0 -- -- 80
2021-01-06 16:00:00 3 5 Este 9 Sudeste 0 -- -- 76
2021-01-06 15:00:00 2.8 3 Sudeste 8 Noroeste 0 -- -- 82
2021-01-06 14:00:00 2.6 5 Noroeste 10 Sudeste 0 -- -- 84
2021-01-06 13:00:00 2.3 8 Sudeste 13 Sudeste 0 -- -- 77
2021-01-06 12:00:00 2.1 0 Calma 5 Noroeste 0 -- -- 87
2021-01-06 11:00:00 1 2 Este 5 Sudeste 0 -- -- 93
2021-01-06 10:00:00 0.6 0 Calma 14 Sudeste -- -- -- 91
2021-01-06 09:00:00 0.5 9 Sudeste 15 Sudeste 0 -- -- 89
2021-01-06 08:00:00 -0.4 4 Sudeste 11 Noroeste 0 -- -- 93
2021-01-06 07:00:00 -0.2 8 Sudeste 11 Sudeste 0 -- -- 95
2021-01-06 06:00:00 -0.2 0 Calma 4 Sudeste 0 -- -- 96
2021-01-06 05:00:00 0.1 2 Sudeste 8 Sudeste 0 -- -- 93
2021-01-06 04:00:00 -0.2 7 Sudeste 9 Sudeste 0 -- -- 95
2021-01-06 03:00:00 -0.3 5 Sudeste 9 Sudeste 0.2 -- -- 95
2021-01-06 02:00:00 -0.4 3 Este 8 Sudeste 0 -- -- 92
2021-01-06 01:00:00 -0.5 5 Sur 10 Noroeste 0 -- -- 95
2021-01-06 00:00:00 -0.5 2 Sudeste 7 Sudeste 0 -- -- 90
2021-01-05 23:00:00 -0.5 5 Este 8 Este 0 -- -- 93
2021-01-05 22:00:00 -0.7 4 Sudeste 11 Este 0 -- -- 91
2021-01-05 21:00:00 0.1 3 Sudeste 5 Sudeste 0.6 -- -- 100
2021-01-05 20:00:00 0.2 3 Sur 4 Sur 1.2 -- -- 100
2021-01-05 19:00:00 0.5 0 Calma 5 Sur 2.2 -- -- 99
2021-01-05 18:00:00 0.6 3 Sudeste 4 Sudeste 1.6 -- -- 99
2021-01-05 17:00:00 1.3 0 Calma 3 Sur 1.4 -- -- 96
2021-01-05 16:00:00 1.3 2 Sur 3 Sur 2.2 -- -- 96
2021-01-05 15:00:00 1.7 0 Calma 5 Este 2.6 -- -- 95
2021-01-05 14:00:00 1.4 0 Calma 3 Sudeste 2.2 -- -- 96
2021-01-05 13:00:00 1.5 0 Calma 3 Sudeste 1.6 -- -- 96
2021-01-05 12:00:00 1 0 Calma 6 Sudeste 2 -- -- 99
2021-01-05 11:00:00 0.3 2 Norte 6 Sudeste 0.2 -- -- 100
2021-01-05 10:00:00 0 0 Calma 2 Norte 2.6 -- -- 100
2021-01-05 09:00:00 -0.2 -- -- -- -- 0.2 -- -- 100
2021-01-05 08:00:00 -0.3 -- -- -- -- 0 -- -- 100
2021-01-05 07:00:00 -0.3 -- -- 0 Calma 0.2 -- -- 100
2021-01-05 06:00:00 -0.4 -- -- 0 Calma 0.4 -- -- 100
2021-01-05 05:00:00 -0.5 -- -- 0 Calma 0.2 -- -- 100
2021-01-05 04:00:00 -0.6 -- -- 0 Calma 0.4 -- -- 100
2021-01-05 03:00:00 -0.6 -- -- 3 Norte 0.2 -- -- 100
2021-01-05 02:00:00 -0.5 -- -- 9 Norte 0.2 -- -- 100
2021-01-05 01:00:00 -0.7 -- -- 0 Calma 0.4 -- -- 100
2021-01-05 00:00:00 -0.7 -- -- 0 Calma 0.2 -- -- 100
2021-01-04 23:00:00 -0.7 -- -- 9 Norte 0.4 -- -- 100
2021-01-04 22:00:00 -0.7 -- -- 8 Norte 0.4 -- -- 98
2021-01-04 21:00:00 -0.7 -- -- 12 Norte 0.2 -- -- 100
2021-01-04 20:00:00 -0.6 -- -- 2 Norte 0.2 -- -- 100
2021-01-04 19:00:00 -0.7 -- -- 0 Calma 0.4 -- -- 100
2021-01-04 18:00:00 -0.7 -- -- 0 Calma 0.6 -- -- 98
2021-01-04 17:00:00 -0.5 -- -- 2 Norte 1 -- -- 98
2021-01-04 16:00:00 -0.1 -- -- 0 Calma 0.6 -- -- 97
2021-01-04 15:00:00 0 0 Calma 5 Norte 1.2 -- -- 96
2021-01-04 14:00:00 0 5 Norte 8 Norte 0.4 -- -- 96
2021-01-04 13:00:00 0.4 0 Calma 12 Norte 1.6 -- -- 97
2021-01-04 12:00:00 0.1 0 Calma 5 Sudeste 1.6 -- -- 98
2021-01-04 11:00:00 -0.2 0 Calma 12 Norte 2 -- -- 99
2021-01-04 10:00:00 -0.5 0 Calma 10 Norte 2.2 -- -- 100
2021-01-04 09:00:00 -0.6 4 Norte 15 Norte 1.2 -- -- 99
2021-01-04 08:00:00 -0.3 8 Norte 15 Norte 2.2 -- -- 98
2021-01-04 07:00:00 -0.3 6 Norte 22 Noroeste 1.6 -- -- 97
2021-01-04 06:00:00 -0.3 3 Nordeste 23 Norte 1.2 -- -- 98
2021-01-04 05:00:00 -0.3 12 Norte 31 Norte 2 -- -- 97
2021-01-04 04:00:00 -0.1 5 Nordeste 24 Norte 2.4 -- -- 96
2021-01-04 03:00:00 -0.5 5 Sur 18 Sur 2.6 -- -- 98
2021-01-04 02:00:00 -0.2 6 Norte 12 Norte 1 -- -- 95
2021-01-04 01:00:00 -0.3 5 Norte 24 Norte 1 -- -- 96
2021-01-04 00:00:00 -0.3 3 Nordeste 23 Norte 0.6 -- -- 96
2021-01-03 23:00:00 -0.2 8 Norte 19 Norte 1.6 -- -- 97
2021-01-03 22:00:00 -0.3 4 Sudoeste 14 Norte 1.2 -- -- 99
2021-01-03 21:00:00 -0.1 12 Norte 26 Norte 0.6 -- -- 98
2021-01-03 20:00:00 0.5 9 Norte 30 Norte 0.2 -- -- 95
2021-01-03 19:00:00 0.3 7 Norte 23 Norte 1 -- -- 97
2021-01-03 18:00:00 0.7 8 Norte 20 Noroeste 1.4 -- -- 94
2021-01-03 17:00:00 1.1 4 Nordeste 21 Norte 0 -- -- 91
2021-01-03 16:00:00 0.8 15 Norte 28 Norte 1.4 -- -- 95
2021-01-03 15:00:00 0.9 8 Norte 22 Norte 3.2 -- -- 95
2021-01-03 14:00:00 1.2 6 Noroeste 24 Norte 1.6 -- -- 95
2021-01-03 13:00:00 1.2 9 Norte 19 Norte 0.8 -- -- 95
2021-01-03 12:00:00 0.8 4 Oeste 18 Norte 1.8 -- -- 98
2021-01-03 11:00:00 1 10 Norte 20 Noroeste 1 -- -- 98
2021-01-03 10:00:00 0.6 12 Norte 23 Norte 1.4 -- -- 100
2021-01-03 09:00:00 0.3 0 Calma 15 Oeste 1.8 -- -- 100
2021-01-03 08:00:00 0.3 0 Calma 6 Noroeste 2.8 -- -- 100
2021-01-03 07:00:00 0.1 0 Calma 4 Sudeste 2 -- -- 100
2021-01-03 06:00:00 0.1 0 Calma 0 Calma 4.2 -- -- 100
2021-01-03 05:00:00 0.2 0 Calma 4 Sudeste 2.4 -- -- 100
2021-01-03 04:00:00 0.1 0 Calma 5 Norte 1.8 -- -- 100
2021-01-03 03:00:00 0 0 Calma 3 Norte 2 -- -- 100
2021-01-03 02:00:00 0.1 2 Oeste 10 Norte 3.2 -- -- 100
2021-01-03 01:00:00 0.2 2 Noroeste 14 Norte 1.2 -- -- 100
2021-01-03 00:00:00 0 0 Calma 10 Nordeste 1.8 -- -- 100
2021-01-02 23:00:00 0 8 Norte 14 Norte 1.6 -- -- 100
2021-01-02 22:00:00 -0.2 3 Norte 5 Norte 0.8 -- -- 100
2021-01-02 21:00:00 -0.1 2 Noroeste 11 Norte 0 -- -- 99
2021-01-02 20:00:00 -0.2 5 Noroeste 12 Norte 0.4 -- -- 99
2021-01-02 19:00:00 0.2 6 Norte 10 Norte 0 -- -- 92
2021-01-02 18:00:00 0.3 3 Nordeste 13 Noroeste 0 -- -- 86
2021-01-02 17:00:00 1.2 6 Noroeste 27 Noroeste 0 -- -- 82
2021-01-02 16:00:00 2.4 14 Noroeste 28 Norte 0 -- -- 78
2021-01-02 15:00:00 -- -- -- -- -- -- -- -- --
2021-01-02 14:00:00 -- -- -- -- -- -- -- -- --